Time;durP1;ratioP1;P1;durP2;ratioP2;P2;SDS_P1;SDS_P2;PMS_P1;PMS_P2;Temp;Humidity;BMP_temperature;BMP_pressure;BME280_temperature;BME280_humidity;BME280_pressure;Samples;Min_cycle;Max_cycle;Signal;HPM_P1;HPM_P2
2022/08/02 00:02:05;;;;;;;;;;;13.10;99.90;;;;;;6226502;22;19947;-76
2022/08/02 00:04:31;;;;;;;;;;;13.10;99.90;;;;;;6251309;22;20329;-75
2022/08/02 00:06:56;;;;;;;;;;;13.10;99.90;;;;;;6251755;22;19922;-77
2022/08/02 00:09:22;;;;;;;;;;;13.10;99.90;;;;;;6251158;22;19919;-78
2022/08/02 00:11:47;;;;;;;;;;;13.10;99.90;;;;;;6251641;22;20261;-76
2022/08/02 00:14:13;;;;;;;;;;;13.10;99.90;;;;;;6251480;22;19915;-78
2022/08/02 00:16:39;;;;;;;;;;;13.10;99.90;;;;;;6201164;22;19919;-76
2022/08/02 00:19:04;;;;;;;;;;;13.00;99.90;;;;;;6226081;22;19915;-77
2022/08/02 00:21:30;;;;;;;;;;;13.00;99.90;;;;;;6277017;22;19916;-75
2022/08/02 00:23:55;;;;;;;;;;;13.00;99.90;;;;;;6251403;22;19923;-78
2022/08/02 00:26:21;;;;;;;;;;;12.90;99.90;;;;;;6226220;22;19915;-76
2022/08/02 00:28:47;;;;;;;;;;;12.90;99.90;;;;;;6225930;22;19922;-77
2022/08/02 00:31:12;;;;;;;;;;;12.90;99.90;;;;;;6226047;22;19922;-76
2022/08/02 00:33:38;;;;;;;;;;;12.90;99.90;;;;;;6226041;22;19919;-75
2022/08/02 00:36:03;;;;;;;;;;;12.80;99.90;;;;;;6251486;22;19915;-77
2022/08/02 00:38:29;;;;;;;;;;;12.90;99.90;;;;;;6250641;22;19962;-76
2022/08/02 00:40:55;;;;;;;;;;;12.90;99.90;;;;;;6226276;22;19923;-76
2022/08/02 00:43:20;;;;;;;;;;;12.80;99.90;;;;;;6251357;22;19919;-76
2022/08/02 00:45:46;;;;;;;;;;;12.80;99.90;;;;;;6251187;22;19915;-76
2022/08/02 00:48:12;;;;;;;;;;;12.80;99.90;;;;;;6225896;22;19915;-77
2022/08/02 00:50:38;;;;;;;;;;;12.80;99.90;;;;;;6225708;22;20015;-76
2022/08/02 00:53:04;;;;;;;;;;;12.80;99.90;;;;;;6251100;22;19951;-78
2022/08/02 00:55:29;;;;;;;;;;;12.70;99.90;;;;;;6251081;22;19915;-77
2022/08/02 00:57:55;;;;;;;;;;;12.70;99.90;;;;;;6251207;22;19915;-76
2022/08/02 01:00:21;;;;;;;;;;;12.70;99.90;;;;;;6250475;22;20085;-76
2022/08/02 01:02:46;;;;;;;;;;;12.70;99.90;;;;;;6225709;22;19919;-75
2022/08/02 01:05:12;;;;;;;;;;;13.00;99.90;;;;;;6250620;22;19977;-77
2022/08/02 01:07:38;;;;;;;;;;;12.70;99.90;;;;;;6250875;22;20009;-75
2022/08/02 01:10:04;;;;;;;;;;;12.70;99.90;;;;;;6250322;22;19915;-77
2022/08/02 01:12:30;;;;;;;;;;;12.60;99.90;;;;;;6250847;22;19915;-75
2022/08/02 01:14:57;;;;;;;;;;;12.70;99.90;;;;;;6250908;22;19923;-78
2022/08/02 01:17:38;;;;;;;;;;;12.70;99.90;;;;;;6225697;22;19954;-75
2022/08/02 01:20:22;;;;;;;;;;;12.60;99.90;;;;;;6250755;22;19922;-75
2022/08/02 01:23:07;;;;;;;;;;;12.60;99.90;;;;;;6250853;22;20313;-79
2022/08/02 01:25:41;;;;;;;;;;;12.50;99.90;;;;;;6250734;22;19925;-76
2022/08/02 01:28:16;;;;;;;;;;;12.50;99.90;;;;;;6251122;22;19915;-78
2022/08/02 01:30:43;;;;;;;;;;;12.50;99.90;;;;;;6250783;22;19947;-78
2022/08/02 01:33:11;;;;;;;;;;;12.50;99.90;;;;;;6250885;22;19922;-77
2022/08/02 01:35:40;;;;;;;;;;;12.50;99.90;;;;;;6250613;22;19915;-77
2022/08/02 01:38:08;;;;;;;;;;;12.50;99.90;;;;;;6225509;22;19916;-78
2022/08/02 01:40:36;;;;;;;;;;;12.50;99.90;;;;;;6225143;22;19930;-78
2022/08/02 01:43:02;;;;;;;;;;;12.50;99.90;;;;;;6250660;22;20317;-76
2022/08/02 01:45:32;;;;;;;;;;;12.40;99.90;;;;;;6225509;22;19955;-77
2022/08/02 01:47:58;;;;;;;;;;;12.40;99.90;;;;;;6225383;22;19926;-77
2022/08/02 01:50:26;;;;;;;;;;;12.30;99.90;;;;;;6250371;22;19915;-77
2022/08/02 01:52:54;;;;;;;;;;;12.50;99.90;;;;;;6250561;22;19960;-77
2022/08/02 01:55:25;;;;;;;;;;;12.40;99.90;;;;;;6250622;22;19915;-76
2022/08/02 01:57:52;;;;;;;;;;;12.50;99.90;;;;;;6250595;22;19915;-77
2022/08/02 02:00:19;;;;;;;;;;;12.40;99.90;;;;;;6250255;22;19923;-77
2022/08/02 02:02:46;;;;;;;;;;;12.40;99.90;;;;;;6250524;22;19977;-77
2022/08/02 02:05:17;;;;;;;;;;;12.40;99.90;;;;;;6276064;22;19989;-77
2022/08/02 02:07:43;;;;;;;;;;;12.30;99.90;;;;;;6225292;22;19915;-76
2022/08/02 02:10:10;;;;;;;;;;;12.40;99.90;;;;;;6249823;22;19980;-77
2022/08/02 02:12:38;;;;;;;;;;;12.40;99.90;;;;;;6250202;22;19918;-76
2022/08/02 02:15:08;;;;;;;;;;;12.40;99.90;;;;;;6219647;23;20092;-77
2022/08/02 02:17:34;;;;;;;;;;;12.40;99.90;;;;;;6220052;23;19986;-76
2022/08/02 02:20:01;;;;;;;;;;;12.30;99.90;;;;;;6219491;23;19962;-77
2022/08/02 02:22:26;;;;;;;;;;;12.40;99.90;;;;;;6220149;23;20230;-76
2022/08/02 02:24:52;;;;;;;;;;;12.40;99.90;;;;;;6195015;23;19916;-76
2022/08/02 02:27:19;;;;;;;;;;;12.30;99.90;;;;;;6219971;23;19943;-76
2022/08/02 02:29:47;;;;;;;;;;;12.30;99.90;;;;;;6220031;23;20318;-77
2022/08/02 02:32:13;;;;;;;;;;;12.30;99.90;;;;;;6195437;23;19915;-75
2022/08/02 02:34:41;;;;;;;;;;;12.30;99.90;;;;;;6194935;23;19922;-79
2022/08/02 02:37:11;;;;;;;;;;;12.30;99.90;;;;;;6194990;23;19955;-78
2022/08/02 02:39:37;;;;;;;;;;;12.30;99.90;;;;;;6219848;23;19915;-75
2022/08/02 02:42:05;;;;;;;;;;;12.30;99.90;;;;;;6194811;23;19916;-76
2022/08/02 02:44:32;;;;;;;;;;;12.30;99.90;;;;;;6194913;23;19954;-75
2022/08/02 02:46:58;;;;;;;;;;;12.40;99.90;;;;;;6219978;23;20319;-78
2022/08/02 02:49:25;;;;;;;;;;;12.30;99.90;;;;;;6219816;23;20330;-77
2022/08/02 02:51:51;;;;;;;;;;;12.30;99.90;;;;;;6220176;23;19974;-77
2022/08/02 02:54:18;;;;;;;;;;;12.30;99.90;;;;;;6219953;23;19923;-75
2022/08/02 02:56:44;;;;;;;;;;;12.20;99.90;;;;;;6219941;23;19915;-76
2022/08/02 02:59:11;;;;;;;;;;;12.20;99.90;;;;;;6220146;23;19960;-76
2022/08/02 03:01:38;;;;;;;;;;;12.20;99.90;;;;;;6220254;23;20325;-78
2022/08/02 03:04:05;;;;;;;;;;;12.20;99.90;;;;;;6221802;23;19922;-76
2022/08/02 03:06:31;;;;;;;;;;;12.20;99.90;;;;;;6221968;23;20273;-77
2022/08/02 03:08:58;;;;;;;;;;;12.20;99.90;;;;;;6196206;23;19915;-74
2022/08/02 03:11:24;;;;;;;;;;;12.20;99.90;;;;;;6196917;23;19916;-76
2022/08/02 03:13:50;;;;;;;;;;;12.10;99.90;;;;;;6221328;23;19916;-75
2022/08/02 03:16:15;;;;;;;;;;;12.20;99.90;;;;;;6197051;23;19916;-75
2022/08/02 03:18:43;;;;;;;;;;;12.30;99.90;;;;;;6221454;22;19920;-74
2022/08/02 03:21:12;;;;;;;;;;;12.20;99.90;;;;;;6196171;23;19922;-77
2022/08/02 03:23:39;;;;;;;;;;;12.20;99.90;;;;;;6196306;23;19916;-74
2022/08/02 03:26:05;;;;;;;;;;;12.20;99.90;;;;;;6196225;23;20233;-76
2022/08/02 03:28:30;;;;;;;;;;;12.30;99.90;;;;;;6221132;22;19943;-75
2022/08/02 03:30:56;;;;;;;;;;;12.30;99.90;;;;;;6196435;23;19959;-79
2022/08/02 03:33:23;;;;;;;;;;;12.40;99.90;;;;;;6196825;23;19916;-76
2022/08/02 03:35:49;;;;;;;;;;;12.40;99.90;;;;;;6221425;23;19920;-78
2022/08/02 03:38:16;;;;;;;;;;;12.40;99.90;;;;;;6248284;23;19947;-75
2022/08/02 03:40:42;;;;;;;;;;;12.50;99.90;;;;;;6221412;23;19966;-75
2022/08/02 03:43:08;;;;;;;;;;;12.40;99.90;;;;;;6196310;23;19920;-76
2022/08/02 03:45:34;;;;;;;;;;;12.40;99.90;;;;;;6221427;23;20222;-76
2022/08/02 03:48:01;;;;;;;;;;;12.40;99.90;;;;;;6196140;23;20033;-75
2022/08/02 03:50:27;;;;;;;;;;;12.50;99.90;;;;;;6220740;23;19965;-76
2022/08/02 03:52:53;;;;;;;;;;;12.30;99.90;;;;;;6221534;23;19920;-77
2022/08/02 03:55:18;;;;;;;;;;;12.30;99.90;;;;;;6221261;23;19962;-77
2022/08/02 03:57:44;;;;;;;;;;;12.40;99.90;;;;;;6196302;23;19915;-76
2022/08/02 04:00:12;;;;;;;;;;;12.50;99.90;;;;;;6195981;23;19922;-75
2022/08/02 04:02:37;;;;;;;;;;;12.30;99.90;;;;;;6220879;23;19916;-76
2022/08/02 04:05:03;;;;;;;;;;;12.20;99.90;;;;;;6221324;23;19928;-76
2022/08/02 04:07:29;;;;;;;;;;;12.50;99.90;;;;;;6221606;23;19916;-78
2022/08/02 04:09:54;;;;;;;;;;;12.50;99.90;;;;;;6220860;23;20318;-76
2022/08/02 04:12:20;;;;;;;;;;;12.60;99.90;;;;;;6220986;23;19939;-75
2022/08/02 04:14:46;;;;;;;;;;;12.70;99.90;;;;;;6221096;23;19915;-77
2022/08/02 04:17:12;;;;;;;;;;;12.70;99.90;;;;;;6196112;23;20231;-76
2022/08/02 04:19:44;;;;;;;;;;;12.80;99.90;;;;;;6220815;23;19920;-75
2022/08/02 04:22:13;;;;;;;;;;;12.90;99.90;;;;;;6195981;23;19947;-75
2022/08/02 04:24:40;;;;;;;;;;;13.10;99.90;;;;;;6221350;23;20294;-76
2022/08/02 04:27:07;;;;;;;;;;;13.00;99.90;;;;;;6196080;23;19938;-77
2022/08/02 04:29:33;;;;;;;;;;;13.10;99.90;;;;;;6195751;23;19919;-75
2022/08/02 04:32:00;;;;;;;;;;;13.10;99.90;;;;;;6195964;23;19916;-77
2022/08/02 04:34:25;;;;;;;;;;;13.00;99.90;;;;;;6196045;23;20238;-76
2022/08/02 04:36:51;;;;;;;;;;;13.00;99.90;;;;;;6220891;23;19916;-76
2022/08/02 04:39:18;;;;;;;;;;;13.00;99.90;;;;;;6195163;23;20298;-77
2022/08/02 04:41:44;;;;;;;;;;;13.10;99.90;;;;;;6220829;23;19955;-77
2022/08/02 04:44:09;;;;;;;;;;;13.10;99.90;;;;;;6220379;23;19916;-77
2022/08/02 04:46:35;;;;;;;;;;;13.30;99.90;;;;;;6195765;23;19916;-77
2022/08/02 04:49:01;;;;;;;;;;;13.10;99.90;;;;;;6220575;23;19923;-76
2022/08/02 04:51:26;;;;;;;;;;;13.10;99.90;;;;;;6220743;23;19916;-77
2022/08/02 04:53:52;;;;;;;;;;;13.20;99.90;;;;;;6195673;23;19923;-77
2022/08/02 04:56:20;;;;;;;;;;;13.10;99.90;;;;;;6220658;23;19923;-76
2022/08/02 04:58:45;;;;;;;;;;;13.10;99.90;;;;;;6195423;22;19941;-76
2022/08/02 05:01:11;;;;;;;;;;;13.20;99.90;;;;;;6195284;23;19987;-77
2022/08/02 05:03:37;;;;;;;;;;;13.30;99.90;;;;;;6196012;23;19915;-77
2022/08/02 05:06:02;;;;;;;;;;;13.20;99.90;;;;;;6195571;23;20226;-78
2022/08/02 05:08:28;;;;;;;;;;;13.30;99.90;;;;;;6194869;23;19919;-76
2022/08/02 05:10:54;;;;;;;;;;;13.30;99.90;;;;;;6220569;23;19922;-76
2022/08/02 05:13:19;;;;;;;;;;;13.40;99.90;;;;;;6194873;23;20226;-72
2022/08/02 05:15:47;;;;;;;;;;;13.40;99.90;;;;;;6220790;23;19915;-72
2022/08/02 05:18:13;;;;;;;;;;;13.40;99.90;;;;;;6195523;23;19965;-71
2022/08/02 05:20:39;;;;;;;;;;;13.60;99.90;;;;;;6220349;23;19973;-71
2022/08/02 05:23:04;;;;;;;;;;;13.70;99.90;;;;;;6195535;23;19989;-72
2022/08/02 05:25:52;;;;;;;;;;;13.70;99.90;;;;;;6195079;23;19916;-75
2022/08/02 05:28:24;;;;;;;;;;;14.00;99.90;;;;;;6192169;23;19994;-73
2022/08/02 05:30:50;;;;;;;;;;;14.10;99.90;;;;;;6193849;23;19939;-73
2022/08/02 05:33:15;;;;;;;;;;;14.30;99.90;;;;;;6218354;23;20238;-75
2022/08/02 05:35:41;;;;;;;;;;;14.50;99.90;;;;;;6219023;23;20402;-73
2022/08/02 05:38:06;;;;;;;;;;;14.60;99.90;;;;;;6219539;23;19965;-75
2022/08/02 05:40:32;;;;;;;;;;;14.80;99.90;;;;;;6194716;23;19919;-73
2022/08/02 05:42:57;;;;;;;;;;;15.10;99.90;;;;;;6219977;23;19919;-73
2022/08/02 05:45:23;;;;;;;;;;;15.30;99.90;;;;;;6219813;23;20203;-72
2022/08/02 05:47:49;;;;;;;;;;;15.40;99.90;;;;;;6194872;23;19918;-72
2022/08/02 05:50:15;;;;;;;;;;;15.60;99.90;;;;;;6219855;23;19912;-74
2022/08/02 05:52:45;;;;;;;;;;;15.60;99.90;;;;;;6219906;23;19983;-73
2022/08/02 05:55:25;;;;;;;;;;;15.80;99.90;;;;;;6219818;23;19911;-72
2022/08/02 05:58:17;;;;;;;;;;;15.80;99.90;;;;;;6195213;23;19916;-73
2022/08/02 06:00:44;;;;;;;;;;;15.90;99.90;;;;;;6220072;23;19947;-73
2022/08/02 06:03:15;;;;;;;;;;;16.00;99.90;;;;;;6220306;23;19916;-72
2022/08/02 06:05:44;;;;;;;;;;;16.10;99.90;;;;;;6220393;23;20279;-72
2022/08/02 06:08:12;;;;;;;;;;;16.20;99.90;;;;;;6246987;23;19916;-71
2022/08/02 06:10:39;;;;;;;;;;;16.30;99.90;;;;;;6194448;23;19916;-72
2022/08/02 06:13:12;;;;;;;;;;;16.40;99.90;;;;;;6195015;23;19919;-72
2022/08/02 06:15:37;;;;;;;;;;;16.50;99.90;;;;;;6220636;23;20084;-73
2022/08/02 06:18:04;;;;;;;;;;;16.40;99.90;;;;;;6220142;23;19990;-72
2022/08/02 06:20:34;;;;;;;;;;;16.40;99.90;;;;;;6194926;23;19919;-71
2022/08/02 06:23:00;;;;;;;;;;;16.40;99.90;;;;;;6220081;23;19919;-71
2022/08/02 06:25:26;;;;;;;;;;;16.50;99.90;;;;;;6220247;23;20271;-70
2022/08/02 06:27:52;;;;;;;;;;;16.50;99.90;;;;;;6220115;23;19922;-70
2022/08/02 06:30:17;;;;;;;;;;;16.70;99.90;;;;;;6194981;23;19919;-71
2022/08/02 06:32:43;;;;;;;;;;;16.90;99.90;;;;;;6195046;23;19916;-71
2022/08/02 06:35:09;;;;;;;;;;;17.20;99.90;;;;;;6220135;23;19922;-71
2022/08/02 06:37:37;;;;;;;;;;;17.50;99.90;;;;;;6222133;23;19920;-71
2022/08/02 06:40:06;;;;;;;;;;;17.80;99.90;;;;;;6222456;23;20225;-72
2022/08/02 06:42:42;;;;;;;;;;;17.90;99.90;;;;;;6249020;23;20242;-71
2022/08/02 06:45:07;;;;;;;;;;;18.10;99.90;;;;;;6197132;23;20311;-71
2022/08/02 06:47:39;;;;;;;;;;;18.20;99.90;;;;;;6222177;23;19916;-73
2022/08/02 06:50:05;;;;;;;;;;;18.10;99.90;;;;;;6196755;23;19969;-69
2022/08/02 06:52:31;;;;;;;;;;;18.00;99.90;;;;;;6248723;23;19966;-72
2022/08/02 06:55:00;;;;;;;;;;;18.00;99.90;;;;;;6221970;23;20222;-71
2022/08/02 06:57:29;;;;;;;;;;;18.00;99.90;;;;;;6222042;23;19994;-70
2022/08/02 06:59:55;;;;;;;;;;;18.10;99.90;;;;;;6221601;23;20322;-71
2022/08/02 07:02:21;;;;;;;;;;;18.30;99.90;;;;;;6221827;23;19920;-70
2022/08/02 07:04:46;;;;;;;;;;;18.60;99.90;;;;;;6248655;23;19916;-72
2022/08/02 07:07:12;;;;;;;;;;;18.80;99.90;;;;;;6221482;23;19916;-72
2022/08/02 07:09:37;;;;;;;;;;;19.10;99.90;;;;;;6216196;23;19920;-72
2022/08/02 07:12:03;;;;;;;;;;;19.40;99.90;;;;;;6216777;23;20385;-70
2022/08/02 07:14:29;;;;;;;;;;;19.60;99.90;;;;;;6191690;23;19916;-70
2022/08/02 07:16:54;;;;;;;;;;;19.60;99.90;;;;;;6191735;23;20239;-72
2022/08/02 07:19:20;;;;;;;;;;;19.60;99.90;;;;;;6191006;23;19916;-70
2022/08/02 07:21:45;;;;;;;;;;;19.50;99.90;;;;;;6218547;23;19977;-70
2022/08/02 07:24:11;;;;;;;;;;;19.60;99.90;;;;;;6216335;23;19916;-71
2022/08/02 07:26:37;;;;;;;;;;;19.70;99.90;;;;;;6217312;23;19923;-71
2022/08/02 07:29:02;;;;;;;;;;;19.90;99.90;;;;;;6216435;23;19916;-73
2022/08/02 07:31:28;;;;;;;;;;;19.80;99.90;;;;;;6191510;23;19920;-72
2022/08/02 07:33:53;;;;;;;;;;;19.90;99.90;;;;;;6191489;23;19923;-71
2022/08/02 07:36:19;;;;;;;;;;;20.10;99.90;;;;;;6216562;23;20223;-71
2022/08/02 07:38:45;;;;;;;;;;;20.20;99.90;;;;;;6216329;23;19982;-71
2022/08/02 07:41:10;;;;;;;;;;;20.40;99.90;;;;;;6216189;23;19916;-69
2022/08/02 07:43:36;;;;;;;;;;;20.60;99.90;;;;;;6216029;23;19915;-70
2022/08/02 07:46:01;;;;;;;;;;;20.80;99.90;;;;;;6191431;23;19916;-69
2022/08/02 07:48:27;;;;;;;;;;;21.00;99.90;;;;;;6217581;23;20330;-71
2022/08/02 07:50:53;;;;;;;;;;;21.10;99.90;;;;;;6215941;23;19915;-71
2022/08/02 07:53:18;;;;;;;;;;;21.20;99.90;;;;;;6191568;23;19927;-68
2022/08/02 07:55:44;;;;;;;;;;;21.20;99.90;;;;;;6191219;23;19915;-70
2022/08/02 07:58:10;;;;;;;;;;;21.50;99.90;;;;;;6217810;23;20204;-70
2022/08/02 08:00:35;;;;;;;;;;;21.60;99.90;;;;;;6217516;23;19920;-71
2022/08/02 08:03:01;;;;;;;;;;;21.60;99.90;;;;;;6216135;23;19915;-72
2022/08/02 08:05:26;;;;;;;;;;;21.60;99.90;;;;;;6216257;23;19920;-70
2022/08/02 08:07:55;;;;;;;;;;;21.70;99.90;;;;;;6215826;23;19949;-71
2022/08/02 08:10:21;;;;;;;;;;;21.80;99.90;;;;;;6216140;23;20334;-71
2022/08/02 08:12:46;;;;;;;;;;;21.90;99.90;;;;;;6191085;23;19916;-71
2022/08/02 08:15:12;;;;;;;;;;;22.20;99.90;;;;;;6217493;23;20362;-71
2022/08/02 08:17:37;;;;;;;;;;;22.40;99.90;;;;;;6216062;23;19992;-70
2022/08/02 08:20:03;;;;;;;;;;;22.60;99.90;;;;;;6190788;23;19963;-70
2022/08/02 08:22:29;;;;;;;;;;;22.80;99.90;;;;;;6191003;23;20334;-70
2022/08/02 08:24:54;;;;;;;;;;;22.90;99.90;;;;;;6217588;23;19922;-72
2022/08/02 08:27:21;;;;;;;;;;;23.00;99.90;;;;;;6217586;23;19995;-71
2022/08/02 08:29:47;;;;;;;;;;;22.80;99.90;;;;;;6215536;23;19998;-69
2022/08/02 08:32:13;;;;;;;;;;;22.80;99.90;;;;;;6215528;23;19951;-70
2022/08/02 08:34:38;;;;;;;;;;;22.90;99.90;;;;;;6215808;23;19923;-71
2022/08/02 08:37:04;;;;;;;;;;;23.00;99.90;;;;;;6190879;23;20274;-71
2022/08/02 08:39:30;;;;;;;;;;;23.10;99.90;;;;;;6215766;23;19922;-70
2022/08/02 08:41:55;;;;;;;;;;;23.30;99.90;;;;;;6217554;23;19920;-70
2022/08/02 08:44:21;;;;;;;;;;;23.40;99.90;;;;;;6190660;23;19915;-73
2022/08/02 08:46:48;;;;;;;;;;;23.60;99.90;;;;;;6215765;23;19915;-70
2022/08/02 08:49:29;;;;;;;;;;;23.90;99.90;;;;;;6217635;23;20341;-72
2022/08/02 08:51:55;;;;;;;;;;;23.90;99.90;;;;;;6215710;23;19916;-72
2022/08/02 08:54:22;;;;;;;;;;;23.70;99.90;;;;;;6190829;23;19922;-70
2022/08/02 08:56:48;;;;;;;;;;;23.60;99.90;;;;;;6217186;23;19972;-70
2022/08/02 08:59:13;;;;;;;;;;;23.70;99.90;;;;;;6190083;23;19920;-72
2022/08/02 09:01:39;;;;;;;;;;;23.70;99.90;;;;;;6217075;23;20269;-71
2022/08/02 09:04:05;;;;;;;;;;;23.70;99.90;;;;;;6190613;23;19952;-72
2022/08/02 09:06:30;;;;;;;;;;;23.90;99.90;;;;;;6215732;23;20339;-72
2022/08/02 09:08:56;;;;;;;;;;;24.10;99.90;;;;;;6215105;23;19916;-73
2022/08/02 09:11:22;;;;;;;;;;;24.10;99.90;;;;;;6215435;23;19916;-70
2022/08/02 09:13:50;;;;;;;;;;;24.20;99.90;;;;;;6190421;23;19969;-73
2022/08/02 09:16:25;;;;;;;;;;;24.30;99.90;;;;;;6214886;23;19923;-71
2022/08/02 09:18:51;;;;;;;;;;;24.50;99.90;;;;;;6215458;23;19919;-72
2022/08/02 09:21:17;;;;;;;;;;;24.70;99.90;;;;;;6215301;23;20211;-72
2022/08/02 09:23:44;;;;;;;;;;;24.90;99.90;;;;;;6217418;23;20315;-71
2022/08/02 09:26:13;;;;;;;;;;;25.00;99.90;;;;;;6216957;23;19923;-71
2022/08/02 09:28:40;;;;;;;;;;;25.00;99.90;;;;;;6215545;23;19947;-73
2022/08/02 09:31:35;;;;;;;;;;;25.00;99.90;;;;;;6189891;23;19919;-73
2022/08/02 09:34:00;;;;;;;;;;;25.00;99.90;;;;;;6189695;23;19922;-72
2022/08/02 09:36:35;;;;;;;;;;;25.10;99.90;;;;;;6190310;23;20281;-71
2022/08/02 09:39:02;;;;;;;;;;;25.20;99.90;;;;;;6215304;23;19922;-72
2022/08/02 09:41:32;;;;;;;;;;;25.10;99.90;;;;;;6215356;23;19920;-73
2022/08/02 09:43:58;;;;;;;;;;;25.00;99.90;;;;;;6190195;23;20374;-72
2022/08/02 09:46:29;;;;;;;;;;;25.00;99.90;;;;;;6190274;23;19938;-74
2022/08/02 09:48:55;;;;;;;;;;;24.90;99.90;;;;;;6216805;23;19923;-73
2022/08/02 09:51:24;;;;;;;;;;;24.80;99.90;;;;;;6190111;23;19966;-72
2022/08/02 09:54:00;;;;;;;;;;;24.90;99.90;;;;;;6216723;23;19915;-72
2022/08/02 09:56:37;;;;;;;;;;;25.00;99.90;;;;;;6215058;23;19915;-72
2022/08/02 09:59:06;;;;;;;;;;;25.30;99.90;;;;;;6190070;23;19995;-71
2022/08/02 10:01:33;;;;;;;;;;;25.40;99.90;;;;;;6215179;23;19920;-73
2022/08/02 10:03:59;;;;;;;;;;;25.60;99.90;;;;;;6215195;23;19920;-73
2022/08/02 10:06:26;;;;;;;;;;;25.80;99.90;;;;;;6215160;23;19916;-74
2022/08/02 10:08:52;;;;;;;;;;;26.00;99.90;;;;;;6219139;23;19916;-72
2022/08/02 10:11:19;;;;;;;;;;;26.10;99.90;;;;;;6219986;23;19919;-72
2022/08/02 10:13:45;;;;;;;;;;;25.80;99.90;;;;;;6247581;23;19916;-72
2022/08/02 10:16:11;;;;;;;;;;;25.90;99.90;;;;;;6246855;23;20337;-74
2022/08/02 10:18:36;;;;;;;;;;;25.80;99.90;;;;;;6220225;23;19916;-72
2022/08/02 10:21:05;;;;;;;;;;;25.80;99.90;;;;;;6194934;23;20314;-71
2022/08/02 10:23:32;;;;;;;;;;;25.70;99.90;;;;;;6220116;23;19916;-71
2022/08/02 10:25:59;;;;;;;;;;;25.80;99.90;;;;;;6220478;23;19924;-73
2022/08/02 10:28:31;;;;;;;;;;;25.80;99.90;;;;;;6220300;23;19923;-78
2022/08/02 10:30:57;;;;;;;;;;;25.50;99.90;;;;;;6219961;23;19916;-74
2022/08/02 10:33:25;;;;;;;;;;;25.50;99.90;;;;;;6220108;23;19988;-74
2022/08/02 10:35:52;;;;;;;;;;;25.60;99.90;;;;;;6246728;23;19915;-72
2022/08/02 10:38:36;;;;;;;;;;;25.70;99.90;;;;;;6195044;23;19915;-73
2022/08/02 10:41:06;;;;;;;;;;;25.80;99.90;;;;;;6219409;23;20307;-75
2022/08/02 10:43:35;;;;;;;;;;;25.90;99.90;;;;;;6194806;23;19920;-75
2022/08/02 10:46:19;;;;;;;;;;;25.80;99.90;;;;;;6193568;23;20234;-74
2022/08/02 10:49:00;;;;;;;;;;;25.60;99.90;;;;;;6220688;23;19921;-74
2022/08/02 10:51:45;;;;;;;;;;;25.50;99.90;;;;;;6218744;23;19916;-74
2022/08/02 10:54:16;;;;;;;;;;;25.60;99.90;;;;;;6219283;23;19958;-75
2022/08/02 10:57:13;;;;;;;;;;;25.50;99.90;;;;;;6219414;23;19912;-74
2022/08/02 10:59:53;;;;;;;;;;;25.50;99.90;;;;;;6193788;23;19919;-75
2022/08/02 11:02:39;;;;;;;;;;;25.60;99.90;;;;;;6194167;23;19966;-73
2022/08/02 11:05:30;;;;;;;;;;;25.60;99.90;;;;;;6218478;23;20324;-74
2022/08/02 11:07:56;;;;;;;;;;;25.70;99.90;;;;;;6218934;23;19983;-73
2022/08/02 11:10:41;;;;;;;;;;;26.10;99.90;;;;;;6194632;23;19946;-74
2022/08/02 11:13:29;;;;;;;;;;;26.00;99.90;;;;;;6216911;23;19915;-75
2022/08/02 11:16:09;;;;;;;;;;;25.90;99.90;;;;;;6240923;23;19947;-73
2022/08/02 11:19:04;;;;;;;;;;;25.70;99.90;;;;;;6169366;23;19912;-74
2022/08/02 11:21:31;;;;;;;;;;;25.50;99.90;;;;;;6216437;23;19922;-73
2022/08/02 11:24:28;;;;;;;;;;;25.40;99.90;;;;;;6196110;23;19918;-73
2022/08/02 11:26:55;;;;;;;;;;;25.40;99.90;;;;;;6219460;23;20326;-72
2022/08/02 11:29:20;;;;;;;;;;;25.00;99.90;;;;;;6220206;22;19915;-72
2022/08/02 11:31:46;;;;;;;;;;;24.90;99.90;;;;;;6195089;23;20199;-74
2022/08/02 11:34:12;;;;;;;;;;;24.70;99.90;;;;;;6220131;23;19916;-73
2022/08/02 11:36:44;;;;;;;;;;;24.70;99.90;;;;;;6246896;23;19924;-72
2022/08/02 11:39:12;;;;;;;;;;;24.40;99.90;;;;;;6195057;23;19922;-73
2022/08/02 11:41:44;;;;;;;;;;;24.40;99.90;;;;;;6220020;23;19922;-74
2022/08/02 11:44:19;;;;;;;;;;;24.40;99.90;;;;;;6221967;23;19926;-73
2022/08/02 11:50:09;;;;;;;;;;;24.10;99.90;;;;;;6216995;23;19991;-77
2022/08/02 11:52:35;;;;;;;;;;;24.00;99.90;;;;;;6169648;23;19920;-72
2022/08/02 11:55:02;;;;;;;;;;;23.90;99.90;;;;;;6194130;23;20318;-70
2022/08/02 11:57:27;;;;;;;;;;;23.70;99.90;;;;;;6219574;23;20604;-72
2022/08/02 11:59:54;;;;;;;;;;;23.50;99.90;;;;;;6218785;23;19958;-72
2022/08/02 12:02:45;;;;;;;;;;;23.40;99.90;;;;;;6218653;23;19927;-83
2022/08/02 12:08:28;;;;;;;;;;;23.30;99.90;;;;;;6161890;23;19917;-74
2022/08/02 12:14:30;;;;;;;;;;;23.30;99.90;;;;;;6036621;23;19913;-78
2022/08/02 12:19:43;;;;;;;;;;;23.40;99.90;;;;;;6157905;23;19912;-74
2022/08/02 12:22:23;;;;;;;;;;;23.30;99.90;;;;;;6133249;23;20138;-71
2022/08/02 12:24:52;;;;;;;;;;;23.40;99.90;;;;;;6157527;23;20458;-70
2022/08/02 12:27:34;;;;;;;;;;;23.40;99.90;;;;;;6132905;23;19926;-73
2022/08/02 12:30:09;;;;;;;;;;;23.60;99.90;;;;;;6157412;23;20244;-71
2022/08/02 12:32:35;;;;;;;;;;;23.70;99.90;;;;;;6158077;23;19916;-72
2022/08/02 12:35:10;;;;;;;;;;;23.80;99.90;;;;;;6132658;23;19919;-72
2022/08/02 12:37:40;;;;;;;;;;;23.90;99.90;;;;;;6182924;23;20314;-73
2022/08/02 12:40:22;;;;;;;;;;;24.00;99.90;;;;;;6183503;23;19912;-73
2022/08/02 12:42:49;;;;;;;;;;;24.10;99.90;;;;;;6163616;23;19994;-74
2022/08/02 12:45:15;;;;;;;;;;;24.40;99.90;;;;;;6164307;23;19916;-73
2022/08/02 12:47:44;;;;;;;;;;;24.60;99.90;;;;;;6190046;23;19911;-72
2022/08/02 12:50:11;;;;;;;;;;;24.80;99.90;;;;;;6189658;23;19912;-70
2022/08/02 12:52:37;;;;;;;;;;;25.00;99.90;;;;;;6165301;23;19931;-70
2022/08/02 12:55:19;;;;;;;;;;;25.00;99.90;;;;;;6140854;23;20230;-72
2022/08/02 12:57:56;;;;;;;;;;;25.00;99.90;;;;;;6165186;23;20276;-72
2022/08/02 13:00:23;;;;;;;;;;;25.10;99.90;;;;;;6189520;23;19980;-70
2022/08/02 13:02:48;;;;;;;;;;;25.40;99.90;;;;;;6188334;23;19999;-70
2022/08/02 13:05:14;;;;;;;;;;;25.60;99.90;;;;;;6189950;23;19948;-72
2022/08/02 13:07:40;;;;;;;;;;;25.70;99.90;;;;;;6189803;23;19923;-72
2022/08/02 13:10:11;;;;;;;;;;;25.50;99.90;;;;;;6176654;23;19916;-72
2022/08/02 13:12:38;;;;;;;;;;;25.50;99.90;;;;;;6214704;23;19916;-70
2022/08/02 13:15:05;;;;;;;;;;;25.50;99.90;;;;;;6189718;23;19942;-75
2022/08/02 13:20:53;;;;;;;;;;;25.40;99.90;;;;;;6215762;23;19919;-72
2022/08/02 13:23:19;;;;;;;;;;;25.20;99.90;;;;;;6189813;23;19916;-74
2022/08/02 13:25:53;;;;;;;;;;;25.20;99.90;;;;;;6189458;23;19916;-75
2022/08/02 13:28:37;;;;;;;;;;;25.20;99.90;;;;;;6213870;23;20241;-75
2022/08/02 13:35:16;;;;;;;;;;;25.10;99.90;;;;;;6094710;23;20247;-73
2022/08/02 13:37:46;;;;;;;;;;;25.00;99.90;;;;;;6069568;23;19920;-74
2022/08/02 13:40:12;;;;;;;;;;;24.90;99.90;;;;;;6070449;23;19918;-72
2022/08/02 13:42:46;;;;;;;;;;;24.90;99.90;;;;;;6070438;23;19917;-77
2022/08/02 13:45:32;;;;;;;;;;;24.90;99.90;;;;;;6143139;23;19912;-72
2022/08/02 13:47:58;;;;;;;;;;;25.00;99.90;;;;;;6153621;23;19916;-73
2022/08/02 13:54:17;;;;;;;;;;;25.10;99.90;;;;;;6098699;23;19913;-71
2022/08/02 13:56:46;;;;;;;;;;;25.20;99.90;;;;;;6092008;23;19920;-72
2022/08/02 13:59:15;;;;;;;;;;;25.30;99.90;;;;;;6161608;23;19916;-73
2022/08/02 14:02:05;;;;;;;;;;;25.20;99.90;;;;;;6189321;23;19927;-74
2022/08/02 14:05:00;;;;;;;;;;;25.20;99.90;;;;;;6150951;23;19948;-71
2022/08/02 14:07:59;;;;;;;;;;;;;;;;;;;;;
2022/08/02 14:24:38;;;;;;;;;;;25.60;98.20;;;;;;5870552;24;19920;-71
2022/08/02 14:27:04;;;;;;;;;;;25.50;97.50;;;;;;5873373;24;19923;-72
2022/08/02 14:29:37;;;;;;;;;;;25.50;97.50;;;;;;5875006;24;19915;-73
2022/08/02 14:35:49;;;;;;;;;;;26.00;96.30;;;;;;5976194;23;19989;-72
2022/08/02 14:38:18;;;;;;;;;;;26.20;96.00;;;;;;6127092;23;19913;-77
2022/08/02 14:40:46;;;;;;;;;;;26.30;95.70;;;;;;6128782;23;19991;-77
2022/08/02 14:44:12;;;;;;;;;;;26.50;95.60;;;;;;6128160;23;19913;-75
2022/08/02 14:46:09;;;;;;;;;;;26.80;94.50;;;;;;6186498;23;19996;-76
2022/08/02 14:48:37;;;;;;;;;;;27.10;94.10;;;;;;6189732;23;20303;-76
2022/08/02 14:51:05;;;;;;;;;;;27.40;92.90;;;;;;6214592;23;19912;-75
2022/08/02 14:53:43;;;;;;;;;;;27.50;92.60;;;;;;6189113;23;19916;-77
2022/08/02 14:56:08;;;;;;;;;;;27.60;92.40;;;;;;6211226;23;19916;-75
2022/08/02 14:58:34;;;;;;;;;;;27.70;92.10;;;;;;6190872;23;19919;-71
2022/08/02 15:01:00;;;;;;;;;;;28.00;92.00;;;;;;6216279;23;20234;-71
2022/08/02 15:03:25;;;;;;;;;;;28.20;92.30;;;;;;6216856;23;19990;-73
2022/08/02 15:05:51;;;;;;;;;;;28.10;91.50;;;;;;6192144;23;19916;-71
2022/08/02 15:08:16;;;;;;;;;;;28.50;92.00;;;;;;6216342;23;19969;-72
2022/08/02 15:10:43;;;;;;;;;;;28.50;92.00;;;;;;6216009;23;19955;-72